Ana Sayfa
METAR-TAF:

METAR-TAF

Havaalanları :

Mehrabad Havalimanı

Tahran, İran

Enlem: 35-41N, Boylam: 051-21E, yükseklik: 1204 m

Güncel hava durumu gözlemi

Rapor saat 11:30 UTC de 36 dakika önce yapıldı.
Rüzgar güney/güneydoğudan 4 kt
Sıcaklık 13°C
Nem 24%
Basınç 1022 hPa
Görüş mesafesi 10 km veya daha fazla
3500 ft yükseklikte az bulutlu

METAR: OIII 241130Z 15004KT 9999 FEW035 13/M07 Q1021 A3017

Saat: 16:36 (12:06 UTC)

Tahmin

Rapor saat 11:30 UTC de 36 dakika önce yapıldı.
Ayın 24'si saat 12 UTC'den ayın 25'si saat 18 UTC'ye kadar geçerli Tahmin
Rüzgar güney/güneybatıdan 6 kt
Görüş mesafesi 10 km veya daha fazla
3500 ft yükseklikte parçalı bulutlu
Geçici
ayın 25'si saat 09 UTC'den ayın 25'si saat 15 UTC'ye kadar
3500 ft yükseklikte az bulutlu, Yükselen kümülüs.
10000 ft yükseklikte parçalı bulutlu

TAF: OIII 241130Z 2412/2518 20006KT 9999 SCT035 TEMPO 2509/2515 FEW035TCU SCT100

4.000'den fazla havaalanı için hava durumu gözlemleri ve tahminleri (METAR ve TAF raporları).

Kullanılabilir istasyonlar harita üzerinde sarı ve kırmızı noktalarla gösterilir.

İstasyonun adını görmek için fareyi noktanın üzerinde gezdirin.

Sonrasında hava gözlem ve tahminlerini görmek için tıklayın.

Haritayı değiştirmek için: yaklaştırmak için siyah artı işaretli yeşil düğmeye ve uzaklaştırmak için de eksi işaretli düğmeye hızla tıklayın; bitişik haritalar için yeşil okları kullanın.


METAR-TAF: